HKEL

Details ICAO HKEL (EDL)
Name ELDORET INTL
Region Kenya
Timezone Africa/Nairobi (UTC+3.0)
Plans Departing 13
Arriving 14
Stats Elevation 6,941 ft / 2,116 m (AMSL)
Location 0.404011° 35.236706°
Runways 1
Magnetic Variation 1.297° E
Sunrise 2017-12-18 03:34:02 UTC / 2017-12-18 06:34:02 Local
Sunset 2017-12-18 15:39:54 UTC / 2017-12-18 18:39:54 Local
Advertisement - Login to hide

Runways

ID Width Length Bearing (true) Bearing (mag) Surface Threshold Offset Overrun Length
08 148 ft / 45 m 11,473 ft / 3,497 m 78.64° 77.34° Asphalt 0 ft / 0 m 0 ft / 0 m
26 148 ft / 45 m 11,473 ft / 3,497 m 258.64° 257.34° Asphalt 0 ft / 0 m 0 ft / 0 m

Map

Weather


0- 5 10 15 20 25 30 35+ Temperature / ° C

Clouds and Precipitation
Forecast for 2017-12-18 18:00 UTC. Updated a minute ago

Ground ~20,000 ft ~40,000 ft Winds

METAR

HKEL 181600Z 08007KT 9999 FEW021CB 20/06 Q1021

TAF

TAF TAF HKEL 181100Z 1812/1912 08010KT 9999 FEW023 TEMPO 1812/1818 -SHRA FEW020CB SCT021 SCT090 BECMG 1820/1823 08005KT FEW018 BECMG 1908/1911 08010KT FEW022CB SCT023

Frequencies

Tower 118.40 MHz TWR
Approach 121.10 MHz RADAR
Approach 119.40 MHz APP
Warning: Do not use this data for real-world aviation or navigation. No guarantee of current accuracy is given.